Time;durP1;ratioP1;P1;durP2;ratioP2;P2;SDS_P1;SDS_P2;PMS_P1;PMS_P2;Temp;Humidity;BMP_temperature;BMP_pressure;BME280_temperature;BME280_humidity;BME280_pressure;Samples;Min_cycle;Max_cycle;Signal;HPM_P1;HPM_P2
2021/08/07 00:01:36;;;;;;;11.53;8.47;;;;;;;18.53;95.38;99527.97;1795174;78;21216;-76
2021/08/07 00:04:03;;;;;;;9.97;7.90;;;;;;;18.49;95.49;99527.28;1800134;78;21057;-76
2021/08/07 00:06:30;;;;;;;11.27;8.73;;;;;;;18.49;95.58;99529.99;1800938;78;20978;-76
2021/08/07 00:08:57;;;;;;;10.53;8.10;;;;;;;18.48;95.69;99532.45;1804096;78;21065;-76
2021/08/07 00:11:24;;;;;;;10.27;8.40;;;;;;;18.48;95.75;99530.31;1799997;79;21538;-75
2021/08/07 00:13:50;;;;;;;11.03;8.63;;;;;;;18.46;95.90;99527.17;1796264;78;21101;-76
2021/08/07 00:16:17;;;;;;;11.70;9.60;;;;;;;18.42;96.02;99539.19;1801907;78;21466;-77
2021/08/07 00:18:44;;;;;;;11.93;9.33;;;;;;;18.38;96.22;99537.50;1803279;78;20952;-75
2021/08/07 00:21:11;;;;;;;12.60;9.93;;;;;;;18.33;96.43;99543.91;1801919;78;21010;-76
2021/08/07 00:23:37;;;;;;;12.53;10.03;;;;;;;18.30;96.54;99545.14;1791518;78;21061;-77
2021/08/07 00:26:04;;;;;;;12.07;9.47;;;;;;;18.27;96.62;99548.73;1798716;78;20991;-77
2021/08/07 00:28:32;;;;;;;13.60;10.57;;;;;;;18.25;96.70;99543.42;1801935;78;20970;-74
2021/08/07 00:30:59;;;;;;;13.27;9.40;;;;;;;18.24;96.79;99547.25;1799485;78;21101;-75
2021/08/07 00:33:26;;;;;;;12.80;10.30;;;;;;;18.21;96.87;99550.06;1796868;79;21195;-76
2021/08/07 00:35:53;;;;;;;12.03;10.43;;;;;;;18.18;96.90;99551.28;1800477;78;21124;-77
2021/08/07 00:38:20;;;;;;;11.30;9.50;;;;;;;18.18;96.95;99554.77;1777174;80;20988;-77
2021/08/07 00:40:47;;;;;;;10.90;9.80;;;;;;;18.20;97.00;99559.30;1777495;78;21521;-76
2021/08/07 00:43:13;;;;;;;12.20;9.77;;;;;;;18.23;97.07;99557.28;1802468;78;20987;-75
2021/08/07 00:45:40;;;;;;;11.50;10.30;;;;;;;18.26;97.09;99568.78;1801038;78;21191;-77
2021/08/07 00:48:08;;;;;;;12.00;9.83;;;;;;;18.26;97.12;99562.03;1802957;78;21100;-77
2021/08/07 00:50:37;;;;;;;11.20;10.00;;;;;;;18.27;97.18;99571.70;1801640;78;21054;-79
2021/08/07 00:53:07;;;;;;;13.27;10.00;;;;;;;18.28;97.25;99575.20;1799843;78;21083;-76
2021/08/07 00:55:34;;;;;;;11.23;9.93;;;;;;;18.27;97.24;99569.00;1775004;79;20935;-77
2021/08/07 00:58:02;;;;;;;9.97;8.90;;;;;;;18.27;97.25;99569.57;1802060;78;21113;-76
2021/08/07 01:00:30;;;;;;;12.53;9.37;;;;;;;18.25;97.29;99570.45;1797516;79;21825;-76
2021/08/07 01:03:23;;;;;;;10.70;9.10;;;;;;;18.23;97.36;99564.61;1792297;78;20951;-77
2021/08/07 01:06:19;;;;;;;11.00;9.83;;;;;;;18.17;97.54;99566.72;1794150;78;21045;-76
2021/08/07 01:09:10;;;;;;;12.90;10.47;;;;;;;18.13;97.71;99577.97;1794056;78;21007;-76
2021/08/07 01:11:47;;;;;;;11.10;9.13;;;;;;;18.07;97.94;99581.98;1802209;78;21438;-74
2021/08/07 01:14:15;;;;;;;11.17;9.70;;;;;;;18.02;98.11;99588.36;1801854;78;21964;-75
2021/08/07 01:16:44;;;;;;;10.60;8.87;;;;;;;18.00;98.38;99589.84;1770049;79;21553;-75
2021/08/07 01:19:17;;;;;;;12.13;10.03;;;;;;;17.97;98.52;99585.88;1795376;78;21007;-75
2021/08/07 01:21:52;;;;;;;12.03;9.87;;;;;;;17.94;98.73;99587.89;1796367;78;21000;-75
2021/08/07 01:24:25;;;;;;;14.20;10.23;;;;;;;17.94;98.82;99589.80;1800244;78;21053;-75
2021/08/07 01:27:17;;;;;;;14.17;11.23;;;;;;;17.91;98.95;99591.24;1798130;78;21246;-74
2021/08/07 01:29:45;;;;;;;11.47;9.67;;;;;;;17.91;99.15;99589.89;1795794;78;21011;-76
2021/08/07 01:32:13;;;;;;;10.80;9.43;;;;;;;17.91;99.36;99590.45;1796047;78;20987;-76
2021/08/07 01:34:43;;;;;;;11.77;10.57;;;;;;;17.91;99.48;99591.24;1781271;79;21023;-76
2021/08/07 01:37:13;;;;;;;12.60;11.30;;;;;;;17.89;99.60;99588.06;1775094;79;21530;-76
2021/08/07 01:39:57;;;;;;;15.17;10.60;;;;;;;17.87;99.72;99584.92;1753462;78;21172;-77
2021/08/07 01:42:26;;;;;;;13.57;11.20;;;;;;;17.86;99.85;99583.89;1786641;79;20956;-75
2021/08/07 01:44:53;;;;;;;13.50;9.60;;;;;;;17.83;99.98;99583.98;1764859;79;20991;-74
2021/08/07 01:47:41;;;;;;;14.97;11.60;;;;;;;17.80;100.00;99592.20;1801579;78;20967;-75
2021/08/07 01:50:24;;;;;;;13.10;11.63;;;;;;;17.79;100.00;99587.90;1803329;78;20987;-75
2021/08/07 01:52:55;;;;;;;13.03;11.60;;;;;;;17.78;100.00;99589.03;1802610;78;21482;-75
2021/08/07 01:55:25;;;;;;;11.70;10.50;;;;;;;17.77;100.00;99596.91;1800462;78;21486;-75
2021/08/07 01:58:13;;;;;;;14.43;11.00;;;;;;;17.78;100.00;99597.70;1777263;79;20999;-76
2021/08/07 02:00:42;;;;;;;14.27;11.07;;;;;;;17.75;100.00;99598.31;1780684;79;21535;-75
2021/08/07 02:03:09;;;;;;;13.10;11.70;;;;;;;17.74;100.00;99598.88;1802918;78;21505;-78
2021/08/07 02:05:38;;;;;;;13.10;10.97;;;;;;;17.73;100.00;99597.28;1749753;78;21110;-76
2021/08/07 02:08:06;;;;;;;12.97;10.77;;;;;;;17.71;100.00;99604.94;1799605;78;21087;-76
2021/08/07 02:10:37;;;;;;;12.30;11.00;;;;;;;17.69;100.00;99612.56;1801867;78;20994;-75
2021/08/07 02:13:05;;;;;;;13.43;10.57;;;;;;;17.67;100.00;99617.52;1795752;78;21036;-78
2021/08/07 02:15:33;;;;;;;14.10;10.53;;;;;;;17.67;100.00;99622.10;1801418;78;20987;-75
2021/08/07 02:18:02;;;;;;;11.17;10.10;;;;;;;17.65;100.00;99618.95;1777794;79;21556;-75
2021/08/07 02:20:29;;;;;;;13.30;10.83;;;;;;;17.64;100.00;99628.19;1762666;81;21177;-74
2021/08/07 02:22:56;;;;;;;13.43;10.63;;;;;;;17.63;100.00;99625.23;1804123;78;20951;-75
2021/08/07 02:25:24;;;;;;;13.53;9.90;;;;;;;17.61;100.00;99624.22;1803291;78;20987;-76
2021/08/07 02:27:59;;;;;;;12.07;8.87;;;;;;;17.60;100.00;99632.06;1798604;79;21006;-76
2021/08/07 02:30:27;;;;;;;12.53;9.90;;;;;;;17.59;100.00;99629.93;1799134;78;21139;-75
2021/08/07 02:32:54;;;;;;;10.73;8.70;;;;;;;17.58;100.00;99622.17;1804912;78;20915;-75
2021/08/07 02:35:21;;;;;;;12.60;9.70;;;;;;;17.58;100.00;99626.22;1777515;78;21007;-75
2021/08/07 02:37:49;;;;;;;9.27;7.73;;;;;;;17.56;100.00;99628.45;1746948;78;21140;-75
2021/08/07 02:40:16;;;;;;;10.23;9.07;;;;;;;17.56;100.00;99633.28;1799368;78;21066;-78
2021/08/07 02:42:45;;;;;;;11.37;9.23;;;;;;;17.56;100.00;99640.59;1803475;79;21338;-76
2021/08/07 02:45:12;;;;;;;10.37;8.57;;;;;;;17.55;100.00;99641.16;1803823;78;21623;-75
2021/08/07 02:47:39;;;;;;;8.87;7.80;;;;;;;17.56;100.00;99650.83;1800303;78;21085;-76
2021/08/07 02:50:10;;;;;;;8.57;6.97;;;;;;;17.57;100.00;99655.14;1795177;78;21608;-78
2021/08/07 02:52:37;;;;;;;9.40;6.70;;;;;;;17.55;100.00;99656.57;1765943;79;21081;-74
2021/08/07 02:55:07;;;;;;;9.07;7.00;;;;;;;17.53;99.39;99655.53;1802815;78;21493;-76
2021/08/07 02:57:35;;;;;;;8.97;6.80;;;;;;;17.53;98.79;99662.28;1799930;78;21590;-76
2021/08/07 03:00:07;;;;;;;6.77;6.07;;;;;;;17.53;98.05;99665.55;1780984;80;21043;-77
2021/08/07 03:02:34;;;;;;;9.90;7.03;;;;;;;17.52;97.57;99674.20;1791510;78;20956;-75
2021/08/07 03:05:04;;;;;;;8.50;7.60;;;;;;;17.52;96.98;99677.47;1802759;78;21569;-75
2021/08/07 03:07:32;;;;;;;8.57;7.30;;;;;;;17.53;96.66;99679.83;1773639;79;21042;-76
2021/08/07 03:10:00;;;;;;;9.40;7.80;;;;;;;17.53;96.58;99680.39;1801102;78;20994;-75
2021/08/07 03:12:29;;;;;;;8.33;7.03;;;;;;;17.54;96.67;99685.48;1773657;79;21047;-75
2021/08/07 03:14:58;;;;;;;9.30;7.73;;;;;;;17.55;96.79;99688.97;1804711;79;21027;-75
2021/08/07 03:17:27;;;;;;;10.40;8.53;;;;;;;17.51;97.02;99686.13;1800934;78;21684;-77
2021/08/07 03:19:54;;;;;;;10.70;8.03;;;;;;;17.50;97.24;99689.93;1791965;79;21967;-75
2021/08/07 03:22:22;;;;;;;9.50;8.27;;;;;;;17.51;97.39;99690.74;1800385;78;20979;-75
2021/08/07 03:24:49;;;;;;;11.83;8.87;;;;;;;17.49;97.58;99690.27;1784212;78;21023;-77
2021/08/07 03:27:16;;;;;;;8.67;7.47;;;;;;;17.47;97.68;99689.25;1799247;78;21057;-77
2021/08/07 03:29:45;;;;;;;8.97;7.67;;;;;;;17.49;97.64;99687.56;1803499;78;21068;-77
2021/08/07 03:32:14;;;;;;;7.93;7.13;;;;;;;17.48;97.55;99690.83;1764121;79;21257;-77
2021/08/07 03:34:42;;;;;;;9.80;7.10;;;;;;;17.48;97.37;99692.17;1772528;79;21602;-76
2021/08/07 03:37:11;;;;;;;8.13;6.93;;;;;;;17.49;96.82;99688.35;1796523;78;21058;-77
2021/08/07 03:39:41;;;;;;;11.10;6.20;;;;;;;17.52;96.56;99694.45;1801416;78;21422;-76
2021/08/07 03:42:08;;;;;;;7.30;6.13;;;;;;;17.55;95.84;99695.16;1795254;78;21018;-79
2021/08/07 03:44:35;;;;;;;7.03;6.27;;;;;;;17.56;95.08;99699.44;1774767;79;21966;-78
2021/08/07 03:47:02;;;;;;;6.63;5.93;;;;;;;17.58;94.78;99698.56;1776223;78;21073;-77
2021/08/07 03:49:29;;;;;;;8.93;5.53;;;;;;;17.60;94.19;99710.38;1795778;79;21171;-77
2021/08/07 03:51:57;;;;;;;8.27;5.97;;;;;;;17.62;93.47;99709.50;1803981;78;20979;-75
2021/08/07 03:54:24;;;;;;;13.30;5.93;;;;;;;17.63;93.08;99715.12;1802693;78;20987;-75
2021/08/07 03:56:52;;;;;;;8.60;6.00;;;;;;;17.63;92.50;99712.43;1794301;78;22154;-75
2021/08/07 03:59:19;;;;;;;8.90;7.20;;;;;;;17.63;92.15;99715.70;1798812;78;20982;-77
2021/08/07 04:01:47;;;;;;;8.93;6.40;;;;;;;17.63;91.86;99710.30;1793925;78;21180;-82
2021/08/07 04:04:15;;;;;;;7.13;6.20;;;;;;;17.61;91.50;99713.89;1794387;78;21128;-78
2021/08/07 04:06:43;;;;;;;7.10;5.63;;;;;;;17.59;91.30;99710.94;1801672;78;21061;-75
2021/08/07 04:09:13;;;;;;;7.43;5.93;;;;;;;17.62;91.14;99717.61;1791984;78;21809;-76
2021/08/07 04:11:42;;;;;;;6.77;5.60;;;;;;;17.65;90.82;99717.52;1796498;78;21133;-77
2021/08/07 04:14:09;;;;;;;6.73;5.50;;;;;;;17.71;90.49;99710.27;1801693;79;21781;-77
2021/08/07 04:16:36;;;;;;;6.33;4.73;;;;;;;17.78;89.84;99715.19;1796364;78;21022;-79
2021/08/07 04:19:04;;;;;;;5.70;4.50;;;;;;;17.84;89.28;99713.89;1800270;79;21081;-75
2021/08/07 04:21:31;;;;;;;5.57;4.63;;;;;;;17.90;88.76;99718.53;1800313;78;21222;-75
2021/08/07 04:23:58;;;;;;;6.57;4.83;;;;;;;17.93;86.79;99720.05;1801503;78;21058;-78
2021/08/07 04:26:26;;;;;;;7.23;4.40;;;;;;;17.97;85.81;99726.94;1802749;78;21058;-76
2021/08/07 04:28:52;;;;;;;6.50;4.63;;;;;;;17.99;84.64;99728.17;1801951;78;21084;-77
2021/08/07 04:31:20;;;;;;;5.20;4.00;;;;;;;18.02;83.78;99730.22;1801299;78;21085;-75
2021/08/07 04:33:47;;;;;;;6.73;4.50;;;;;;;18.05;83.46;99726.87;1800168;78;21056;-76
2021/08/07 04:36:14;;;;;;;8.40;4.80;;;;;;;18.10;83.30;99719.68;1800868;78;21077;-74
2021/08/07 04:38:42;;;;;;;6.53;4.47;;;;;;;18.16;82.88;99730.54;1798598;78;20998;-75
2021/08/07 04:41:10;;;;;;;5.83;4.43;;;;;;;18.22;82.45;99735.98;1776852;79;21826;-76
2021/08/07 04:43:37;;;;;;;5.50;4.17;;;;;;;18.26;82.24;99743.67;1802239;78;21071;-76
2021/08/07 04:46:04;;;;;;;6.50;4.47;;;;;;;18.27;81.61;99733.89;1801175;78;21148;-76
2021/08/07 04:48:31;;;;;;;5.40;4.07;;;;;;;18.30;81.92;99732.45;1801603;78;20991;-74
2021/08/07 04:51:00;;;;;;;6.17;4.53;;;;;;;18.34;81.09;99740.70;1797566;79;20995;-76
2021/08/07 04:53:26;;;;;;;6.57;4.47;;;;;;;18.36;80.88;99741.95;1790464;78;21082;-77
2021/08/07 04:55:55;;;;;;;7.23;4.70;;;;;;;18.41;80.25;99739.61;1794611;78;21573;-76
2021/08/07 04:58:23;;;;;;;7.33;4.40;;;;;;;18.46;80.49;99744.27;1798277;78;21211;-75
2021/08/07 05:00:50;;;;;;;6.03;3.93;;;;;;;18.54;80.35;99732.36;1793320;78;21057;-75
2021/08/07 05:03:17;;;;;;;4.77;4.20;;;;;;;18.56;79.91;99736.33;1788729;78;21118;-76
2021/08/07 05:05:44;;;;;;;6.00;4.33;;;;;;;18.61;79.18;99740.73;1794433;78;21078;-77
2021/08/07 05:08:13;;;;;;;5.00;3.70;;;;;;;18.65;78.71;99732.18;1802965;79;20979;-76
2021/08/07 05:10:42;;;;;;;5.73;3.73;;;;;;;18.71;78.48;99729.50;1800172;78;21568;-78
2021/08/07 05:13:09;;;;;;;5.13;3.67;;;;;;;18.77;77.37;99730.92;1791508;79;21042;-77
2021/08/07 05:15:37;;;;;;;4.83;3.73;;;;;;;18.81;76.30;99719.66;1798986;78;21093;-76
2021/08/07 05:18:05;;;;;;;5.00;3.80;;;;;;;18.86;76.20;99727.58;1802556;78;21006;-76
2021/08/07 05:20:35;;;;;;;5.47;3.80;;;;;;;18.91;75.48;99719.80;1803163;78;21163;-76
2021/08/07 05:23:03;;;;;;;5.27;3.73;;;;;;;18.95;75.05;99722.06;1765084;80;21083;-75
2021/08/07 05:25:30;;;;;;;5.40;3.60;;;;;;;19.01;74.90;99722.09;1778647;78;21014;-75
2021/08/07 05:27:57;;;;;;;5.77;3.60;;;;;;;19.08;74.48;99720.20;1801549;78;21077;-77
2021/08/07 05:30:24;;;;;;;5.57;3.57;;;;;;;19.16;73.99;99728.23;1801435;78;21038;-76
2021/08/07 05:32:51;;;;;;;5.93;3.80;;;;;;;19.21;73.61;99727.22;1756161;79;21089;-76
2021/08/07 05:35:18;;;;;;;5.33;3.30;;;;;;;19.26;73.45;99722.96;1763364;79;21099;-77
2021/08/07 05:37:46;;;;;;;4.90;3.47;;;;;;;19.28;72.42;99733.44;1798906;78;21110;-78
2021/08/07 05:40:14;;;;;;;5.07;3.40;;;;;;;19.26;71.63;99732.44;1801256;78;20991;-78
2021/08/07 05:42:42;;;;;;;4.33;3.33;;;;;;;19.28;71.29;99741.03;1797242;78;21022;-74
2021/08/07 05:45:10;;;;;;;6.53;3.60;;;;;;;19.29;70.98;99743.16;1792840;78;20997;-77
2021/08/07 05:47:37;;;;;;;5.40;3.20;;;;;;;19.34;71.05;99741.02;1781414;79;21759;-77
2021/08/07 05:50:08;;;;;;;4.83;3.20;;;;;;;19.40;70.97;99751.86;1800172;78;21066;-78
2021/08/07 05:52:36;;;;;;;5.73;3.40;;;;;;;19.47;69.87;99743.75;1797724;78;21014;-77
2021/08/07 05:55:06;;;;;;;4.00;3.40;;;;;;;19.48;68.97;99747.50;1798652;78;21437;-77
2021/08/07 05:57:33;;;;;;;3.67;2.73;;;;;;;19.48;69.60;99739.91;1798869;78;21057;-77
2021/08/07 06:00:02;;;;;;;3.33;2.90;;;;;;;19.55;69.57;99742.87;1793406;78;21085;-77
2021/08/07 06:02:32;;;;;;;3.20;2.60;;;;;;;19.58;68.20;99762.52;1771126;79;21039;-77
2021/08/07 06:04:59;;;;;;;4.27;2.80;;;;;;;19.59;68.62;99762.17;1780227;79;21055;-75
2021/08/07 06:07:27;;;;;;;4.97;2.67;;;;;;;19.61;68.33;99759.11;1752095;79;21220;-77
2021/08/07 06:09:54;;;;;;;3.80;2.50;;;;;;;19.65;67.86;99756.80;1775135;79;21046;-76
2021/08/07 06:12:21;;;;;;;4.40;2.73;;;;;;;19.71;68.43;99762.80;1795665;78;21510;-75
2021/08/07 06:14:48;;;;;;;4.57;2.70;;;;;;;19.78;68.35;99761.66;1800135;78;20971;-76
2021/08/07 06:17:14;;;;;;;5.60;2.90;;;;;;;19.85;68.21;99760.53;1793319;78;21118;-76
2021/08/07 06:19:44;;;;;;;4.67;3.00;;;;;;;19.90;68.37;99750.81;1787080;78;21155;-77
2021/08/07 06:22:12;;;;;;;3.73;2.70;;;;;;;20.01;67.63;99753.88;1803313;78;21054;-75
2021/08/07 06:24:38;;;;;;;3.93;2.70;;;;;;;20.11;67.26;99758.84;1800958;78;21513;-76
2021/08/07 06:27:06;;;;;;;3.60;2.87;;;;;;;20.19;66.32;99753.06;1800618;78;21509;-75
2021/08/07 06:29:34;;;;;;;3.90;2.50;;;;;;;20.26;66.37;99755.20;1801831;78;21086;-76
2021/08/07 06:32:02;;;;;;;4.17;2.77;;;;;;;20.33;65.82;99762.97;1801449;78;21035;-77
2021/08/07 06:34:31;;;;;;;3.10;2.60;;;;;;;20.36;65.07;99756.87;1801131;78;20998;-76
2021/08/07 06:36:57;;;;;;;3.67;2.60;;;;;;;20.32;64.32;99755.98;1768216;79;21495;-75
2021/08/07 06:39:24;;;;;;;4.17;2.30;;;;;;;20.30;64.81;99747.95;1794457;79;21046;-76
2021/08/07 06:41:51;;;;;;;6.57;2.37;;;;;;;20.34;64.44;99748.30;1799439;78;20958;-76
2021/08/07 06:44:22;;;;;;;4.15;2.58;;;;;;;20.46;64.63;99753.46;1795100;78;21049;-75
2021/08/07 06:46:50;;;;;;;4.00;2.70;;;;;;;20.54;63.25;99750.66;1789492;79;20951;-75
2021/08/07 06:49:17;;;;;;;4.30;2.63;;;;;;;20.59;63.50;99749.61;1801244;78;21130;-74
2021/08/07 06:51:44;;;;;;;4.50;2.70;;;;;;;20.68;63.20;99757.05;1796583;78;21513;-76
2021/08/07 06:54:11;;;;;;;4.30;2.37;;;;;;;20.72;63.36;99747.66;1801124;78;21201;-77
2021/08/07 06:56:38;;;;;;;3.33;2.30;;;;;;;20.76;63.89;99756.14;1796435;78;21706;-78
2021/08/07 06:59:05;;;;;;;5.17;2.70;;;;;;;20.83;63.82;99754.98;1792996;78;20999;-77
2021/08/07 07:01:32;;;;;;;4.60;2.63;;;;;;;20.89;62.75;99757.43;1795515;78;21979;-75
2021/08/07 07:04:00;;;;;;;3.60;2.57;;;;;;;20.93;62.06;99765.13;1793863;78;21085;-76
2021/08/07 07:06:28;;;;;;;4.10;2.83;;;;;;;20.85;61.72;99765.48;1800339;78;21010;-78
2021/08/07 07:08:56;;;;;;;3.70;2.33;;;;;;;20.77;62.15;99772.64;1797586;78;21064;-79
2021/08/07 07:11:23;;;;;;;5.30;2.70;;;;;;;20.79;61.21;99774.99;1796432;78;21101;-77
2021/08/07 07:13:51;;;;;;;3.20;2.50;;;;;;;20.78;61.95;99763.35;1736421;79;21158;-76
2021/08/07 07:16:18;;;;;;;4.77;2.67;;;;;;;20.79;62.64;99771.70;1800651;78;21098;-78
2021/08/07 07:18:48;;;;;;;3.67;2.73;;;;;;;20.85;62.98;99775.77;1796289;78;21065;-76
2021/08/07 07:21:16;;;;;;;3.45;2.50;;;;;;;20.93;61.22;99786.84;1799938;78;21073;-76
2021/08/07 07:23:43;;;;;;;3.23;2.50;;;;;;;20.94;60.74;99785.70;1778080;79;21034;-76
2021/08/07 07:26:09;;;;;;;5.83;3.07;;;;;;;20.96;60.81;99787.48;1798752;78;21334;-75
2021/08/07 07:28:37;;;;;;;3.70;2.73;;;;;;;20.91;60.93;99786.39;1765652;79;21081;-74
2021/08/07 07:31:04;;;;;;;4.47;2.77;;;;;;;20.85;60.26;99794.77;1797175;78;21078;-74
2021/08/07 07:33:31;;;;;;;4.63;2.30;;;;;;;20.73;59.41;99790.75;1794851;78;21061;-76
2021/08/07 07:35:58;;;;;;;4.60;2.70;;;;;;;20.63;59.81;99790.41;1798295;78;21014;-77
2021/08/07 07:38:25;;;;;;;6.13;3.00;;;;;;;20.61;60.10;99783.98;1796945;78;22507;-84
2021/08/07 07:40:54;;;;;;;4.77;2.80;;;;;;;20.63;59.95;99783.06;1796728;78;21053;-74
2021/08/07 07:43:22;;;;;;;4.97;2.83;;;;;;;20.70;59.85;99792.00;1799216;78;21571;-78
2021/08/07 07:45:50;;;;;;;5.87;3.10;;;;;;;20.78;60.22;99787.78;1797372;78;21042;-75
2021/08/07 07:48:17;;;;;;;4.93;3.00;;;;;;;20.89;60.95;99785.36;1797879;78;21049;-75
2021/08/07 07:50:44;;;;;;;4.77;2.90;;;;;;;21.00;61.29;99791.89;1799416;78;21157;-75
2021/08/07 07:53:11;;;;;;;4.73;3.03;;;;;;;21.14;61.29;99793.42;1801133;78;21016;-75
2021/08/07 07:55:39;;;;;;;3.83;2.80;;;;;;;21.29;59.53;99803.55;1798951;78;21057;-76
2021/08/07 07:58:07;;;;;;;3.70;2.70;;;;;;;21.36;57.35;99813.84;1794285;78;20995;-77
2021/08/07 08:00:36;;;;;;;4.00;2.67;;;;;;;21.34;57.06;99801.92;1799295;78;21490;-76
2021/08/07 08:03:03;;;;;;;4.93;2.50;;;;;;;21.36;57.55;99796.19;1800465;78;21116;-74
2021/08/07 08:05:35;;;;;;;3.40;2.70;;;;;;;21.38;57.90;99800.11;1782270;78;21159;-74
2021/08/07 08:08:05;;;;;;;3.80;2.93;;;;;;;21.48;57.34;99812.40;1774650;79;21011;-73
2021/08/07 08:10:35;;;;;;;4.17;2.90;;;;;;;21.56;56.75;99822.33;1748777;81;21089;-73
2021/08/07 08:13:02;;;;;;;3.10;2.50;;;;;;;21.62;56.32;99807.35;1772518;78;21046;-74
2021/08/07 08:15:30;;;;;;;5.37;2.60;;;;;;;21.66;55.68;99807.44;1799658;78;21602;-73
2021/08/07 08:17:56;;;;;;;4.10;2.73;;;;;;;21.68;55.75;99812.72;1792663;78;21055;-75
2021/08/07 08:20:25;;;;;;;3.17;2.30;;;;;;;21.73;54.90;99811.12;1798396;78;20983;-72
2021/08/07 08:22:52;;;;;;;2.97;2.20;;;;;;;21.81;54.32;99799.06;1774809;79;20999;-72
2021/08/07 08:25:19;;;;;;;5.00;2.43;;;;;;;21.81;53.69;99804.50;1771258;80;21534;-73
2021/08/07 08:27:45;;;;;;;2.90;2.10;;;;;;;21.86;51.59;99807.75;1794911;78;21162;-73
2021/08/07 08:30:12;;;;;;;3.03;2.23;;;;;;;21.89;51.87;99820.64;1801223;79;21011;-75
2021/08/07 08:32:41;;;;;;;4.13;2.30;;;;;;;21.88;52.77;99801.41;1798294;78;21046;-74
2021/08/07 08:35:09;;;;;;;2.37;1.80;;;;;;;21.97;53.24;99801.20;1774170;79;21111;-72
2021/08/07 08:37:37;;;;;;;3.80;2.00;;;;;;;22.09;51.09;99805.77;1776187;79;21645;-74
2021/08/07 08:40:06;;;;;;;3.70;2.10;;;;;;;22.06;50.32;99810.55;1775362;80;21072;-76
2021/08/07 08:42:33;;;;;;;3.20;1.80;;;;;;;22.00;50.79;99812.73;1801034;78;21034;-74
2021/08/07 08:45:00;;;;;;;3.30;2.30;;;;;;;21.97;51.02;99814.23;1801801;78;21037;-75
2021/08/07 08:47:27;;;;;;;4.80;1.97;;;;;;;21.97;51.01;99814.23;1800640;78;21114;-73
2021/08/07 08:49:54;;;;;;;3.60;2.10;;;;;;;22.02;51.36;99813.19;1797799;78;21066;-72
2021/08/07 08:52:25;;;;;;;2.30;1.80;;;;;;;22.09;51.91;99817.44;1802968;79;21160;-72
2021/08/07 08:54:52;;;;;;;3.77;2.20;;;;;;;22.19;50.89;99815.56;1788113;78;21089;-73
2021/08/07 08:57:20;;;;;;;5.17;1.90;;;;;;;22.23;51.35;99822.44;1802223;78;21549;-72
2021/08/07 08:59:47;;;;;;;3.77;2.30;;;;;;;22.34;52.71;99818.60;1799731;78;21378;-73
2021/08/07 09:02:14;;;;;;;2.70;1.80;;;;;;;22.50;52.14;99808.47;1774323;79;21589;-72
2021/08/07 09:04:42;;;;;;;4.20;2.10;;;;;;;22.64;51.08;99799.85;1802214;78;21150;-73
2021/08/07 09:07:15;;;;;;;3.10;1.90;;;;;;;22.75;51.06;99803.58;1800498;78;21415;-73
2021/08/07 09:09:46;;;;;;;3.67;1.97;;;;;;;22.87;49.62;99819.00;1803171;78;21582;-72
2021/08/07 09:12:14;;;;;;;3.67;1.70;;;;;;;22.83;48.84;99803.14;1801037;78;21006;-72
2021/08/07 09:14:45;;;;;;;3.47;1.90;;;;;;;22.79;49.45;99807.16;1802606;78;21169;-71
2021/08/07 09:17:20;;;;;;;3.50;2.00;;;;;;;22.82;50.71;99813.83;1803877;78;21106;-71
2021/08/07 09:19:53;;;;;;;3.07;1.80;;;;;;;22.99;51.06;99816.72;1802807;79;21548;-72
2021/08/07 09:22:26;;;;;;;2.90;1.73;;;;;;;23.19;49.71;99808.75;1800211;78;21067;-71
2021/08/07 09:25:16;;;;;;;3.50;1.60;;;;;;;23.23;49.95;99810.18;1801524;79;21054;-70
2021/08/07 09:27:50;;;;;;;3.70;1.80;;;;;;;23.23;49.46;99809.63;1802542;78;21494;-70
2021/08/07 09:30:25;;;;;;;3.73;1.90;;;;;;;23.26;50.31;99811.61;1801607;79;21992;-71
2021/08/07 09:33:03;;;;;;;2.37;1.63;;;;;;;23.34;50.66;99809.83;1799650;78;21132;-72
2021/08/07 09:35:42;;;;;;;1.73;1.30;;;;;;;23.47;49.26;99796.24;1804301;78;20987;-72
2021/08/07 09:38:22;;;;;;;3.53;1.50;;;;;;;23.38;48.89;99799.77;1803543;78;21537;-70
2021/08/07 09:41:04;;;;;;;3.30;1.50;;;;;;;23.33;47.96;99800.05;1798748;79;22485;-75
2021/08/07 09:43:36;;;;;;;2.40;1.40;;;;;;;23.29;47.86;99810.89;1739520;81;21126;-73
2021/08/07 09:46:09;;;;;;;2.20;1.27;;;;;;;23.29;47.73;99807.38;1772030;81;21046;-72
2021/08/07 09:48:48;;;;;;;4.37;1.70;;;;;;;23.29;47.39;99823.15;1779635;79;21483;-73
2021/08/07 09:51:35;;;;;;;1.50;1.20;;;;;;;23.31;47.26;99820.08;1774380;79;21066;-73
2021/08/07 09:54:14;;;;;;;2.10;1.40;;;;;;;23.39;47.16;99832.67;1799062;78;20946;-71
2021/08/07 09:56:57;;;;;;;2.83;1.50;;;;;;;23.37;48.47;99824.09;1803773;78;21165;-70
2021/08/07 09:59:33;;;;;;;2.73;1.30;;;;;;;23.45;48.31;99835.91;1799447;78;21054;-73
2021/08/07 10:02:00;;;;;;;3.03;1.50;;;;;;;23.45;48.03;99838.05;1801491;79;20999;-72
2021/08/07 10:04:42;;;;;;;2.00;1.40;;;;;;;23.50;47.87;99838.34;1798844;78;21002;-70
2021/08/07 10:07:11;;;;;;;1.95;1.25;;;;;;;23.53;49.10;99852.62;1800189;78;21085;-71
2021/08/07 10:09:39;;;;;;;1.70;1.23;;;;;;;23.60;48.79;99856.25;1801184;79;21186;-71
2021/08/07 10:12:13;;;;;;;2.17;1.40;;;;;;;23.69;46.52;99848.44;1798974;78;21072;-70
2021/08/07 10:14:42;;;;;;;2.03;1.20;;;;;;;23.79;47.66;99847.83;1800161;78;21548;-71
2021/08/07 10:17:11;;;;;;;2.20;1.20;;;;;;;23.99;48.99;99848.00;1801711;78;21038;-71
2021/08/07 10:19:40;;;;;;;1.63;1.10;;;;;;;24.16;46.09;99863.08;1776065;79;21046;-72
2021/08/07 10:22:09;;;;;;;4.30;1.30;;;;;;;24.19;46.06;99868.39;1772119;78;21105;-73
2021/08/07 10:24:41;;;;;;;1.63;0.90;;;;;;;24.24;44.51;99861.24;1802643;79;21003;-71
2021/08/07 10:27:08;;;;;;;2.63;1.23;;;;;;;24.30;45.35;99852.96;1798904;78;21091;-70
2021/08/07 10:29:42;;;;;;;1.50;1.13;;;;;;;24.29;44.51;99852.18;1802568;79;21177;-71
2021/08/07 10:32:08;;;;;;;4.67;1.40;;;;;;;24.10;44.16;99852.26;1796681;78;21026;-72
2021/08/07 10:34:37;;;;;;;2.63;1.00;;;;;;;23.91;44.95;99873.56;1802383;79;21504;-70
2021/08/07 10:37:05;;;;;;;2.67;1.10;;;;;;;23.83;46.24;99874.61;1799059;78;20919;-72
2021/08/07 10:39:33;;;;;;;3.80;1.50;;;;;;;23.78;46.78;99866.71;1803447;78;21039;-72
2021/08/07 10:42:02;;;;;;;2.23;1.20;;;;;;;23.77;46.89;99874.69;1797391;78;21299;-72
2021/08/07 10:44:31;;;;;;;2.57;1.60;;;;;;;23.79;47.21;99868.28;1802385;79;21046;-72
2021/08/07 10:46:58;;;;;;;2.30;1.10;;;;;;;23.73;46.77;99867.81;1802456;78;21105;-75
2021/08/07 10:49:42;;;;;;;2.27;1.20;;;;;;;23.69;47.02;99872.42;1802119;78;21661;-73
2021/08/07 10:52:29;;;;;;;1.67;1.20;;;;;;;23.68;46.41;99883.09;1802956;79;21057;-74
2021/08/07 10:54:56;;;;;;;2.57;1.60;;;;;;;23.64;45.91;99872.09;1800275;78;21058;-71
2021/08/07 10:57:35;;;;;;;2.00;1.30;;;;;;;23.64;46.43;99880.27;1802570;78;21577;-71
2021/08/07 11:00:23;;;;;;;2.97;1.00;;;;;;;23.64;47.12;99881.64;1804179;78;21769;-73
2021/08/07 11:02:51;;;;;;;2.27;1.10;;;;;;;23.67;46.99;99889.67;1801089;78;21105;-72
2021/08/07 11:05:18;;;;;;;2.00;1.17;;;;;;;23.72;46.73;99895.42;1742874;80;21121;-72
2021/08/07 11:07:47;;;;;;;2.30;1.20;;;;;;;23.69;47.21;99890.14;1770239;79;21163;-74
2021/08/07 11:10:15;;;;;;;1.37;0.97;;;;;;;23.69;46.98;99889.33;1777957;79;21618;-72
2021/08/07 11:12:47;;;;;;;2.60;1.10;;;;;;;23.74;45.94;99899.95;1781090;79;22158;-71
2021/08/07 11:15:31;;;;;;;1.90;1.00;;;;;;;23.81;45.71;99895.98;1777898;80;21628;-74
2021/08/07 11:18:21;;;;;;;2.07;1.00;;;;;;;23.92;45.21;99894.22;1779060;79;21034;-75
2021/08/07 11:20:49;;;;;;;1.60;0.80;;;;;;;24.06;44.91;99891.77;1778509;79;21034;-73
2021/08/07 11:23:17;;;;;;;2.10;0.90;;;;;;;24.17;44.01;99891.15;1765177;79;21716;-75
2021/08/07 11:25:50;;;;;;;2.90;0.90;;;;;;;24.32;44.29;99891.60;1796118;78;21799;-75
2021/08/07 11:28:18;;;;;;;1.80;1.10;;;;;;;24.52;43.43;99889.02;1800610;78;21482;-76
2021/08/07 11:30:45;;;;;;;2.10;0.90;;;;;;;24.52;43.68;99885.50;1801063;78;21031;-79
2021/08/07 11:33:19;;;;;;;2.13;0.90;;;;;;;24.50;43.28;99889.95;1800839;78;21597;-75
2021/08/07 11:35:51;;;;;;;2.57;1.20;;;;;;;24.49;43.61;99887.59;1799046;78;20994;-76
2021/08/07 11:38:25;;;;;;;1.83;1.10;;;;;;;24.50;43.75;99880.39;1798770;78;21172;-77
2021/08/07 11:41:06;;;;;;;1.13;0.90;;;;;;;24.49;43.54;99878.83;1799903;79;21058;-74